FEMALE AGE GROUP RESULTS
2016 Vulcan Run 10K
Birmingham, AL 11/05/2016 8:00 am
Directed by: Birmingham Track Club, Timed by: Set Up Events

---------------------------------------------------------------------------
TOP 6 OVERALL FEMALES
---------------------------------------------------------------------------

Place Bib NAME Age Sex CITY/STATE TeamName GunTime GunPace TagTime TagPace
1. 1 JOAN AIYABEI 37 F LANSING MI 34:16 5:32 34:15 5:32
2. 1079 GLADYS DAVID 25 F MURFREESBORO TN 35:09 5:41 35:08 5:40
3. 7 EMMA NEIGEL 22 F STARKVILLE MS 35:53 5:48 35:52 5:48
4. 3 VICTORIA VORONKO 25 F GREENVILLE SC 36:00 5:49 35:59 5:49
5. 941 JOANNA MCCOY 22 F MOBILE AL 37:31 6:04 37:30 6:03
6. 4 RACHEL HARLEY 26 F BIRMINGHAM AL CADENCE COED 37:33 6:04 37:32 6:04
---------------------------------------------------------------------------
TOP 3 MASTERS FEMALES
---------------------------------------------------------------------------

Place Bib NAME Age Sex CITY/STATE TeamName GunTime GunPace TagTime TagPace
1. 276 MISTY GRIFFIN 42 F MOODY AL 42:58 6:56 42:54 6:56
2. 173 JULIE CROUSHORN 44 F PELHAM AL RESOLUTE RUNNING WOMEN 43:40 7:03 43:37 7:03
3. 138 JENNIFER CHRISTY 47 F BIRMINGHAM AL 45:14 7:18 45:09 7:17
---------------------------------------------------------------------------
TOP 1 GRANDMASTERS FEMALES
---------------------------------------------------------------------------

Place Bib NAME Age Sex CITY/STATE TeamName GunTime GunPace TagTime TagPace
1. 328 ALISON HOOVER 50 F HOOVER AL 45:40 7:22 45:31 7:21
---------------------------------------------------------------------------
TOP 1 SENIOR GRANDMASTERS FEMALES
---------------------------------------------------------------------------

Place Bib NAME Age Sex CITY/STATE TeamName GunTime GunPace TagTime TagPace
1. 1067 GAIL BEVIER 63 F BIRMINGHAM AL 59:42 9:38 58:47 9:29
---------------------------------------------------------------------------
FEMALE AGE GROUP: 1 - 14
---------------------------------------------------------------------------

Place Bib NAME Age Sex CITY/STATE TeamName GunTime GunPace TagTime TagPace
1. 989 EMMA GRACE WATSON 12 F BIRMINGHAM AL 57:11 9:14 56:42 9:09
2. 710 ANALISE TOONE 12 F BIRMINGHAM AL 1:08:05 10:59 1:07:36 10:55
3. 598 BAILIEGH RICHARDS 6 F KIMBERLY AL 1:18:43 12:42 1:17:46 12:33
4. 677 MAGGIE STANA 13 F BIRMINGHAM AL 1:18:51 12:43 1:17:50 12:34
---------------------------------------------------------------------------
FEMALE AGE GROUP: 15 - 19
---------------------------------------------------------------------------

Place Bib NAME Age Sex CITY/STATE TeamName GunTime GunPace TagTime TagPace
1. 479 SALLY ANN MISSILDINE 17 F DECATUR AL 52:01 8:24 51:40 8:20
2. 740 LAURA CATHERIN WALLACE 19 F BRENTWOOD TN 52:39 8:30 52:27 8:28
3. 663 MEGAN SMITH 19 F HUNTSVILLE AL 56:30 9:07 56:17 9:05
4. 191 EMILY DEVRIESE 19 F GRAND RAPIDS MI 57:47 9:20 57:07 9:13
5. 306 LANE HENSON 17 F BIRMINGHAM AL 59:50 9:39 59:11 9:33
6. 79 CAROLINE BESHEARS 19 F FRANKLIN TN 1:00:36 9:47 59:59 9:41
7. 1026 ZOE PENKO 19 F BIRMINGHAM AL 1:03:47 10:18 1:02:43 10:07
8. 448 ELLA MCATEE 19 F BIRMINGHAM AL 1:08:48 11:06 1:07:37 10:55
9. 773 SYDNEY WILKERSON 19 F AUBURN AL 1:08:48 11:06 1:07:37 10:55
10. 973 MARGARET VICE 19 F BIRMINGHAM AL 1:10:32 11:23 1:10:18 11:21
11. 716 KATHARINE TURNBULL 17 F BIRMINGHAM AL 1:12:10 11:39 1:11:56 11:37
12. 561 SCOUT PHILLIPS 16 F BIRMINGHAM AL 1:14:34 12:02 1:13:44 11:54
13. 447 CAMPBELL MCATEE 17 F BIRMINGHAM AL 1:35:53 15:28 1:34:42 15:17
---------------------------------------------------------------------------
FEMALE AGE GROUP: 20 - 24
---------------------------------------------------------------------------

Place Bib NAME Age Sex CITY/STATE TeamName GunTime GunPace TagTime TagPace
1. 10 WHITLEY WALDROP 23 F JACKSONVILLE AL CADENCE COED 38:43 6:15 38:42 6:15
2. 166 MARY CRAIG 24 F HOOVER AL 41:44 6:44 41:39 6:44
3. 337 LAUREN HOWELL 24 F BIRMINGHAM AL CAHABA DISTANCE PROJECT 43:32 7:02 43:30 7:01
4. 1083 MARY KATHRYN WOODS 23 F HOMEWOOD AL 53:45 8:41 53:21 8:37
5. 324 LAUREN HOLT 22 F BIRMINGHAM AL 55:09 8:54 54:41 8:50
6. 158 CARA COOPER 22 F BIRMINGHAM AL 55:27 8:57 55:21 8:56
7. 524 ALLIE NORTON 23 F HOMEWOOD AL 56:26 9:06 56:12 9:04
8. 242 KARMEN GAINES 22 F BIRMINGHAM AL 58:41 9:28 58:13 9:24
9. 826 JAYNE HAFIZI 24 F MOBILE AL 58:43 9:29 57:55 9:21
10. 244 BLAIR GAITHER 21 F BIRMINGHAM AL 58:49 9:30 57:38 9:18
11. 481 STEPHANIE MITCHELL 20 F TUSCALOOSA AL 58:51 9:30 58:10 9:23
12. 566 KAYLA PINTO 24 F HOMEWOOD AL 1:00:12 9:43 59:52 9:40
13. 221 CLARE FARROW 22 F TUSCALOOSA AL 1:00:35 9:47 59:53 9:40
14. 477 ABIGAIL MISSILDINE 23 F DECATUR AL 1:02:52 10:09 1:02:31 10:05
15. 789 HANNAH WOOD 21 F MORRIS AL 1:02:59 10:10 1:02:31 10:05
16. 579 BRITTNEY PURDY 23 F TRUSSVILLET AL 1:06:42 10:46 1:05:57 10:39
17. 162 LYNDSIE CORY 23 F CLEARWATER FL 1:07:42 10:56 1:07:10 10:50
18. 947 HANNAH MITCHELL 23 F GARDENDALE AL 1:09:35 11:14 1:08:49 11:06
19. 373 KAELA KELLY 22 F PINSON AL 1:09:57 11:17 1:09:17 11:11
20. 694 SYDNEY TALLEY 23 F LEEDS AL 1:18:09 12:37 1:17:51 12:34
21. 307 LINDSEY HENSON 23 F BIRMINGHAM AL 1:20:53 13:03 1:20:03 12:55
22. 84 CYNTHIA BISHOP 21 F HUNTSVILLE AL 1:30:34 14:37 1:29:46 14:29
---------------------------------------------------------------------------
FEMALE AGE GROUP: 25 - 29
---------------------------------------------------------------------------

Place Bib NAME Age Sex CITY/STATE TeamName GunTime GunPace TagTime TagPace
1. 9 LAUREN SCOTT 25 F BIRMINGHAM AL CAHABA DISTANCE PROJECT 38:06 6:09 38:05 6:09
2. 8 CHELSEY PALMER 28 F BIRMINGHAM AL CAHABA DISTANCE PROJECT 40:12 6:29 40:10 6:29
3. 2 JENNIFER DUNN 26 F BIRMINGHAM AL 41:05 6:38 41:03 6:38
4. 233 MADELEINE FRANK 25 F BIRMINGHAM AL 41:23 6:41 41:19 6:40
5. 1037 KELLY FARRELL 28 F BIRMINGHAM AL 41:49 6:45 41:38 6:43
6. 311 MELANIE HILDEBRANDT 28 F BIRMINGHAM AL 41:58 6:46 41:54 6:46
7. 509 LAUREN MURPHREE 26 F GARDENDALE AL 45:45 7:23 45:16 7:19
8. 854 MEGHAN RALPH 28 F BIRMINGHAM AL 46:45 7:33 46:40 7:32
9. 263 CATHERINE GOMEZ 25 F BIRMINGHAM AL 48:54 7:54 48:41 7:52
10. 159 LAUREN CORNELIUS 27 F ONEONTA AL 51:07 8:15 50:44 8:11
11. 520 TAYLOR NIEDER 25 F BIRMINGHAM AL 51:29 8:19 50:49 8:12
12. 680 KELSEY STEIN 27 F BIRMINGHAM AL 51:56 8:23 51:49 8:22
13. 518 JESSICA NICHOLS 26 F BIRMINGHAM AL 52:25 8:28 52:08 8:25
14. 533 AMBER ORTIZ 26 F BIRMINGHAM AL 52:31 8:29 51:32 8:19
15. 669 GRACE SMITHERMAN 28 F HELENA AL 53:11 8:35 52:47 8:31
16. 733 CHASSI WADDELL 29 F FULTONDALE AL 53:25 8:37 52:48 8:31
17. 364 SARA JOYCE 29 F DENVER CO 53:45 8:41 53:20 8:37
18. 392 HANNA LAHR 28 F BIRMINGHAM AL 54:15 8:45 53:53 8:42
19. 715 KACY TUCKER 27 F MOUNT OLIVE AL 54:36 8:49 54:19 8:46
20. 1092 BRITTANY DECKER 27 F BIRMINGHAM AL 55:14 8:55 55:00 8:53
21. 625 MELISSA SANCHEZ 29 F FULTONDALE AL 55:29 8:57 54:53 8:52
22. 92 AMY BONKA 28 F BIRMINGHAM AL 55:41 8:59 55:28 8:57
23. 309 ALEJANDRA HERNANDEZ ORTIZ 28 F BIRMINGHAM AL 55:51 9:01 55:33 8:58
24. 437 KATIE MATCHEN 27 F BIRMINGHAM AL 55:56 9:02 55:47 9:00
25. 599 EMILY RICHEY 26 F TUSCALOOSA AL 56:01 9:03 55:04 8:53
26. 1050 EMILY SCHROLL 29 F HOMEWOOD AL 57:11 9:14 56:29 9:07
27. 445 TRACEY MAY 28 F TRUSSVILLE AL 58:07 9:23 57:52 9:20
28. 679 RACHEL STARK 27 F BIRMINGHAM AL 58:07 9:23 57:52 9:20
29. 563 ALEX PHIPPS 26 F BIRMINGHAM AL 58:07 9:23 57:37 9:18
30. 864 KASEY TUCKER 25 F BIRMINGHAM AL 58:43 9:29 57:55 9:21
31. 1088 ANNE GAZZINI 27 F VESTAVIA AL 58:59 9:31 57:52 9:20
32. 1086 KATHERINE TISDALE 26 F VESTAVIA AL 58:59 9:31 57:53 9:21
33. 271 JESSICA GRAYSON 29 F BIRMINGHAM AL 59:04 9:32 58:44 9:29
34. 250 BRITTANY GASKIN 26 F BIRMINGHAM AL 59:50 9:39 59:21 9:35
35. 1045 AMANDA WELLS 28 F BIRMINGHAM AL 1:00:05 9:42 59:47 9:39
36. 508 CHRISTIE MURCHISON 28 F BIRMINGHAM AL 1:00:56 9:50 1:00:11 9:43
37. 655 HALEY SMITH 29 F BIRMINGHAM AL 1:01:23 9:54 1:00:52 9:50
38. 225 CATIE FLYNT 28 F CULLMAN AL 1:01:46 9:58 1:01:04 9:51
39. 882 TIFFANY BRUCE 26 F BIRMINGHAM AL 1:02:11 10:02 1:01:45 9:58
40. 388 MARLA KORNEGAY 28 F BIRMINGHAM AL 1:04:04 10:20 1:03:14 10:12
41. 82 KATIE BILLINGS 25 F BIRMINGHAM AL 1:04:46 10:27 1:04:23 10:24
42. 707 LAURIE TINDOL 27 F BIRMINGHAM AL 1:04:51 10:28 1:04:28 10:24
43. 738 ELEANOR WALKER 25 F BIRMINGHAM AL 1:04:52 10:28 1:04:28 10:24
44. 280 GUSSIE HALL 29 F MOBILE AL 1:04:58 10:29 1:03:46 10:18
45. 904 KELLY FORDHAM 27 F HUNTSVILLE AL 1:06:13 10:41 1:05:14 10:32
46. 183 ABBY DAY 28 F BIRMINGHAM AL 1:07:08 10:50 1:06:51 10:47
47. 790 MARY WOODRUFF 27 F BIRMINGHAM AL 1:08:22 11:02 1:07:40 10:55
48. 161 ALYSSA CORY 26 F TALLAHASSEE FL 1:08:53 11:07 1:08:22 11:02
49. 284 MICHELLE HANKS 26 F TRUSSVILLE AL 1:08:58 11:08 1:08:11 11:00
50. 505 EMILY MULLINS 27 F GADSDEN AL 1:09:10 11:10 1:08:19 11:02
51. 417 JACQUELINE LONG 25 F BIRMINGHAM AL 1:11:39 11:34 1:10:48 11:26
52. 150 LAURA COLLINS 29 F BIRMINGHAM AL CABANISS JOHNSTON 1:12:30 11:42 1:11:57 11:37
53. 358 EMILY JOHNSON 27 F BIRMINGHAM AL 1:13:00 11:47 1:12:13 11:39
54. 145 NIKKI COHRON 25 F BIRMINGHAM AL 1:18:19 12:38 1:17:15 12:28
55. 597 AMY RICHARDS 29 F KIMBERLY AL RESOLUTE RUNNING COED 1:18:50 12:43 1:17:53 12:34
56. 1009 KAYLEY KRUEGER 28 F BIRMINGHAM AL 1:19:51 12:53 1:19:38 12:51
57. 1098 ANNA KRUEGER 25 F BIRMINGHAM AL 1:20:08 12:56 1:19:55 12:54
58. 171 TABITHA CROCKER 26 F DORA AL 1:20:31 13:00 1:19:23 12:49
59. 659 KATLYN SMITH 25 F WETUMPKA AL 1:22:20 13:17 1:21:22 13:08
60. 134 LAURA CHAATH 29 F BIRMINGHAM AL 1:29:25 14:26 1:28:49 14:20
61. 355 NATALIAN JOHNSON 28 F CALERA AL 1:35:33 15:25 1:34:30 15:15
62. 385 KANEESHA KNIGHT 25 F SYLACAUGA AL 1:35:44 15:27 1:34:35 15:16
---------------------------------------------------------------------------
FEMALE AGE GROUP: 30 - 34
---------------------------------------------------------------------------

Place Bib NAME Age Sex CITY/STATE TeamName GunTime GunPace TagTime TagPace
1. 6 JUSTYNA MUDY-MADER 32 F HUNTSVILLE AL RUNNINGLANE COED 37:41 6:05 37:40 6:05
2. 823 LAUREN FLOYD 34 F BIRMINGHAM AL CADENCE COED 41:52 6:46 41:48 6:45
3. 187 ANNE DEBARDELEBEN 34 F BIRMINGHAM AL RESOLUTE RUNNING WOMEN 44:45 7:14 44:37 7:12
4. 948 JENNIFER MURRAY 32 F BIRMINGHAM AL 45:02 7:16 44:56 7:15
5. 61 KELLY ATKINS 32 F BIRMINGHAM AL 47:38 7:41 47:24 7:39
6. 893 ANGEL DARMER 34 F BIRMINGHAM AL 49:40 8:01 48:35 7:51
7. 199 MEGAN DRUMM 34 F BIRMINGHAM AL 49:43 8:01 49:23 7:58
8. 766 LAURIE WHITE 34 F BIRMINGHAM AL 50:31 8:09 50:13 8:06
9. 760 STELLA WENNBERG 30 F WINFIELD AL 50:51 8:13 50:12 8:06
10. 44 AMELIA ALTZ-STAMM 33 F BIRMINGHAM AL 51:36 8:20 51:24 8:18
11. 182 KRISTIE DAY 32 F BIRMINGHAM AL 52:56 8:33 52:36 8:29
12. 737 ANDREA WALKER 34 F BIRMINGHAM AL 53:08 8:35 52:52 8:32
13. 637 ERIN SEARSON 33 F BIRMINGHAM AL 54:00 8:43 53:30 8:38
14. 428 MARIA MADDEN 31 F BIRMINGHAM AL 54:09 8:44 53:16 8:36
15. 489 CARA MORANTZ 33 F BIRMINGHAM AL 55:48 9:00 55:27 8:57
16. 418 CLAIRE LONG 34 F BIRMINGHAM AL 56:24 9:06 55:59 9:02
17. 988 DIANA BLACKWELL 31 F BIRMINGHAM AL 57:08 9:13 56:53 9:11
18. 623 MEAGHAN RYAN 34 F BIRMINGHAM AL RESOLUTE RUNNING WOMEN 57:20 9:15 56:43 9:09
19. 584 MICHELLE RAMSEY 33 F TRUSSVILLE AL 57:23 9:16 56:37 9:08
20. 900 CARLEY EZZELL 32 F BIRMINGHAM AL 57:43 9:19 57:12 9:14
21. 895 TONYA DRINKARD 31 F IRONDALE AL 58:06 9:23 57:34 9:18
22. 172 ASHLEY CROCKETT 32 F GARDENDALE AL 58:16 9:24 57:42 9:19
23. 872 CHRISTINA ANDREEN 31 F BIRMINGHAM AL 58:30 9:26 57:34 9:18
24. 866 KATY VENARD 31 F BIRMINGHAM AL 59:03 9:32 58:47 9:29
25. 302 JESSICA HEINE 34 F BIRMINGHAM AL 59:29 9:36 59:19 9:34
26. 883 TOMMYE BYRD 31 F HOOVER AL 59:57 9:41 59:06 9:32
27. 257 KATIE GIBSON 32 F BIRMINGHAM AL 1:00:29 9:46 1:00:00 9:41
28. 622 BETH RYAN 33 F LEEDS AL 1:01:08 9:52 1:00:47 9:49
29. 452 ANNE MCCABE 34 F MOUNT OLIVE AL 1:01:53 9:59 1:01:20 9:54
30. 822 ROBYN FLEMING 30 F ALABASTER AL 1:02:32 10:06 1:01:17 9:53
31. 411 KOREN LEE 33 F BIRMINGHAM AL RUNNINGLANE COED 1:02:45 10:08 1:02:33 10:06
32. 750 BRANDY WAYMAN 33 F AUBURN AL 1:03:14 10:12 1:02:23 10:04
33. 207 IRELI ECHEVERRIA 32 F BIRMINGHAM AL 1:03:40 10:17 1:03:13 10:12
34. 222 JESSICA FLEMING 34 F VESTAVIA HILLS AL 1:04:00 10:20 1:02:43 10:07
35. 791 KATHLEEN WOODRUFF 30 F VESTAVIA HILLS AL 1:04:07 10:21 1:03:26 10:14
36. 632 STEPHANIE SCHILLING 33 F GARDENDALE AL 1:04:12 10:22 1:03:40 10:16
37. 779 JENNY WILLIAMSON 32 F BIRMINGHAM AL 1:04:16 10:22 1:04:01 10:20
38. 399 RACHAEL LANCASTER 32 F BIRMINGHAM AL 1:04:41 10:26 1:04:13 10:22
39. 1019 AMY GARBER 30 F VESTAVIA AL 1:04:44 10:27 1:04:29 10:24
40. 296 MEGAN HATHCOCK 33 F TRUSSVILLE AL 1:04:53 10:28 1:04:16 10:22
41. 811 JESSICA BURNETT 34 F BIRMINGHAM AL 1:05:42 10:36 1:04:42 10:26
42. 1014 AMY WRIGHT 32 F HOOVER AL 1:06:16 10:42 1:05:16 10:32
43. 274 JENNIFER GREMMELS 34 F TRUSSVILLE AL 1:06:19 10:42 1:05:41 10:36
44. 212 KELLY ESTEP 33 F MC CALLA AL 1:06:29 10:44 1:05:58 10:39
45. 894 STEPHANIE DEVINE 31 F TRUSSVILLE AL 1:06:38 10:45 1:06:38 10:45
46. 770 SARA BETH WILCOX 34 F BIRMINGHAM AL 1:06:49 10:47 1:06:11 10:41
47. 256 AMY GIBSON 32 F BIRMINGHAM AL 1:06:52 10:48 1:06:18 10:42
48. 415 TAYLOR LEWIS 31 F HOOVER AL 1:07:04 10:49 1:06:12 10:41
49. 88 ASHLEY BLACKWELL 30 F BIRMINGHAM AL 1:08:23 11:02 1:08:07 11:00
50. 290 REBECCA HARGRAVES 34 F BIRMINGHAM AL 1:08:23 11:02 1:07:39 10:55
51. 578 LEIGH ANN PRITCHETT 30 F SPRINGVILLE AL 1:08:59 11:08 1:08:12 11:00
52. 129 JAMIE CARNES 34 F MORRIS AL 1:09:18 11:11 1:08:23 11:02
53. 771 LAUREN WILDER 31 F MONTGOMERY AL 1:10:18 11:21 1:09:36 11:14
54. 830 JESSICA JACKSON 34 F ALABASTER AL 1:10:49 11:26 1:09:45 11:15
55. 739 KIERA WALKER 32 F BIRMINGHAM AL COUNSELORS ON THE RUN 1:11:04 11:28 1:10:03 11:18
56. 922 BRANDI HYATT 34 F BIRMINGHAM AL 1:12:40 11:44 1:11:56 11:37
57. 1090 RUTH WANG 30 F HOOVER AL 1:13:07 11:48 1:11:56 11:37
58. 209 STACEY ELROD 30 F MOODY AL 1:13:20 11:50 1:12:05 11:38
59. 208 ANDREA ECKELMAN 33 F MONTEVALLO AL 1:13:29 11:52 1:13:04 11:47
60. 485 MEREDITH MOONEY 34 F WILSONVILLE AL 1:14:59 12:06 1:14:22 12:00
61. 320 HEATHER HOLDEN 34 F HARVEST AL 1:15:26 12:10 1:15:09 12:08
62. 832 SARA KAYLOR 34 F TUSCALOOSA AL 1:16:32 12:21 1:15:53 12:15
63. 534 STEPHANIE OSBORNE 33 F GARDENDALE AL 1:20:02 12:55 1:19:40 12:51
64. 499 NICOLE MORTON 33 F GARDENDALE AL 1:20:02 12:55 1:19:40 12:51
65. 463 KATHY MCKEE 33 F SPRINGVILLE AL 1:21:56 13:13 1:21:28 13:09
66. 234 MICHELLE FREEMAN 32 F BIRMINGHAM AL 1:22:21 13:17 1:21:22 13:08
67. 635 ADRIENNE SCOTT 30 F BIRMINGHAM AL 1:27:27 14:07 1:26:37 13:59
68. 143 JENNIFER CLAYTON 34 F CHELSEA AL 1:29:30 14:27 1:28:24 14:16
69. 910 COURTNEY GARZA 33 F PELHAM AL 1:30:02 14:32 1:28:49 14:20
70. 386 CHERYL KNIGHT 33 F BIRMINGHAM AL 1:30:06 14:32 1:28:54 14:21
71. 488 BRIDGETT MOORE 31 F HOOVER AL 1:56:43 18:50 1:55:30 18:38
---------------------------------------------------------------------------
FEMALE AGE GROUP: 35 - 39
---------------------------------------------------------------------------

Place Bib NAME Age Sex CITY/STATE TeamName GunTime GunPace TagTime TagPace
1. 11 SHAWANNA WHITE 36 F COLUMBIA SC RUNNINGLANE COED 37:40 6:05 37:38 6:05
2. 294 FONTAINE HASKELL 35 F BIRMINGHAM AL RESOLUTE RUNNING WOMEN 41:45 6:44 41:43 6:44
3. 105 MURRAY BROMSTAD 39 F BIRMINGHAM AL 44:47 7:14 44:41 7:13
4. 1042 MICHELLE REID 37 F HOMEWOOD AL 47:08 7:37 46:56 7:35
5. 646 GRETCHEN SHEPPARD 36 F BIRMINGHAM AL 51:08 8:15 50:51 8:13
6. 976 UTA WENDLAND 39 F BESSEMER AL 51:20 8:17 50:48 8:12
7. 262 HOLLY GOFF 39 F BIRMINGHAM AL 51:22 8:17 50:41 8:11
8. 932 SHILONQUA LEE 39 F BESSEMER AL RESOLUTE RUNNING WOMEN 51:52 8:22 51:32 8:19
9. 211 HEATHER ERON 37 F BIRMINGHAM AL 51:57 8:23 51:33 8:19
10. 613 TOVAH ROSE 36 F BIRMINGHAM AL 51:58 8:23 51:17 8:17
11. 47 ASHLEY AMES 38 F HELENA AL 52:13 8:26 51:38 8:20
12. 969 JULIE TUCKER 35 F BIRMINGHAM AL 52:17 8:26 51:43 8:21
13. 252 MEREDITH GAY 39 F BIRMINGHAM AL 52:20 8:27 51:52 8:22
14. 214 TAYLOR ESTES 38 F BIRMINGHAM AL 53:04 8:34 52:45 8:31
15. 950 BETH NORRIS 37 F QUINTON AL 53:09 8:35 52:39 8:30
16. 155 ASHLEY COMMINS 39 F BIRMINGHAM AL 53:11 8:35 52:34 8:29
17. 331 KYLIE HOPPER 38 F BIRMINGHAM AL 53:27 8:38 53:11 8:35
18. 408 HEATHER LEE 39 F BIRMINGHAM AL 54:15 8:45 53:52 8:42
19. 796 LESLIE WRIGHT 35 F BIRMINGHAM AL 55:02 8:53 54:51 8:51
20. 185 KATHERINE DEASE 38 F BIRMINGHAM AL 55:11 8:54 55:00 8:53
21. 1061 KARI HOGUE 39 F VESTAVIA AL 55:16 8:55 54:39 8:49
22. 560 BRIDGET PHILLIPS 39 F TRUSSVILLE AL 56:05 9:03 55:30 8:58
23. 354 LAUREN JOHNSEY 35 F BIRMINGHAM AL 56:12 9:04 55:16 8:55
24. 873 LESLIE ARMSTRONG 38 F TRUSSVILLE AL 56:46 9:10 56:12 9:04
25. 784 JULIE WILSON 39 F CLANTON AL 57:32 9:17 57:11 9:14
26. 701 SARA THOMPSON 36 F HOMEWOOD AL 57:37 9:18 57:14 9:14
27. 810 KIM BLACKENBURG 35 F BIRMINGHAM AL 57:43 9:19 57:19 9:15
28. 903 JANNA FIELDS 36 F BIRMINGHAM AL 58:22 9:25 57:48 9:20
29. 255 MEREDITH GEORGE 36 F CALERA AL 58:41 9:28 58:18 9:25
30. 787 BROOKE WINGARD 35 F HOOVER AL 59:05 9:32 58:24 9:26
31. 1000 ROBIN MARK 39 F BIRMINGHAM AL 59:22 9:35 58:53 9:30
32. 920 STEPHANIE HUBBARD 35 F BIRMINGHAM AL RESOLUTE RUNNING COED 59:37 9:37 58:37 9:28
33. 473 MARY T. MILLER 39 F BIRMINGHAM AL 59:53 9:40 59:05 9:32
34. 146 LISA COLECCHIA 39 F AURORA IL 1:00:16 9:44 59:40 9:38
35. 818 BELINDA ECKHOFF 35 F BIRMINGHAM AL 1:01:29 9:55 1:00:59 9:50
36. 330 JAMI HOPPER 38 F TRUSSVILLE AL 1:01:32 9:56 1:00:56 9:50
37. 641 LAURA SENN 35 F BIRMINGHAM AL 1:01:32 9:56 1:01:10 9:52
38. 231 RACHAEL FOWLER 36 F WARRIOR AL 1:02:05 10:01 1:00:51 9:49
39. 180 SARINA DAVIS 39 F PELHAM AL 1:02:07 10:01 1:01:43 9:58
40. 96 LEISHA BOWMAN 35 F BIRMINGHAM AL 1:02:09 10:02 1:01:17 9:54
41. 38 JULIA AHO 38 F BESSEMER AL 1:02:46 10:08 1:01:49 9:59
42. 50 SUSAN ANDREAE 35 F BIRMINGHAM AL 1:03:01 10:10 1:02:00 10:00
43. 89 STACIE BOACKLE 39 F HOOVER AL 1:03:03 10:11 1:02:42 10:07
44. 304 MEGHAN HENLEY 36 F SYLACAUGA AL 1:03:14 10:12 1:02:23 10:04
45. 218 DOROTHY EWING 36 F CALERA AL 1:04:32 10:25 1:03:58 10:19
46. 475 AMBER MILLS 36 F ONEONTA AL 1:04:41 10:26 1:04:12 10:22
47. 198 APRIL DOWLING 36 F VESTAVIA AL 1:05:31 10:34 1:05:18 10:32
48. 1016 HOLLY JONES 36 F HOMEWOOD AL 1:06:02 10:39 1:05:16 10:32
49. 359 CAROLINE JONES 35 F BIRMINGHAM AL 1:06:15 10:42 1:05:25 10:33
50. 109 EMILY BROWN 37 F FLORENCE AL 1:06:50 10:47 1:06:11 10:41
51. 1094 BETSY HOPSON 36 F LINCOLN AL 1:07:44 10:56 1:07:19 10:52
52. 153 ANNA COLVIN 39 F BIRMINGHAM AL 1:08:06 10:59 1:07:39 10:55
53. 352 KYLIE JERNIGAN 37 F HOOVER AL 1:08:17 11:01 1:07:19 10:52
54. 547 ASHLEY PATTERSON 39 F BIRMINGHAM AL 1:08:19 11:01 1:07:21 10:52
55. 45 ANNA ALTZ-STAMM 35 F BIRMINGHAM AL 1:09:27 11:12 1:09:05 11:09
56. 753 SARAH WEAVER 38 F HOOVER AL 1:09:28 11:13 1:08:40 11:05
57. 57 ALLENE ARNOLD 36 F BIRMINGHAM AL 1:10:30 11:23 1:10:17 11:21
58. 1072 JENNIFER COFER 39 F BIRMINGHAM AL 1:10:46 11:25 1:10:46 11:25
59. 529 SARAH O'KELLEY 38 F TRUSSVILLE AL 1:11:14 11:30 1:10:31 11:23
60. 901 LAURA FALONE 37 F BIRMINGHAM AL 1:11:15 11:30 1:10:09 11:19
61. 967 KELLY TAYLOR 38 F BIRMINGHAM AL 1:11:33 11:33 1:10:57 11:27
62. 409 CANDICE LEE 39 F BIRMINGHAM AL 1:12:45 11:45 1:11:31 11:33
63. 943 MAITE MILLER 38 F WILSONVILLE AL 1:14:13 11:59 1:13:18 11:50
64. 840 ANNA MANASCO 36 F BIRMINGHAM AL 1:20:58 13:04 1:20:14 12:57
65. 111 JESSICA BROWN 39 F BATON ROUGE LA 1:20:58 13:04 1:20:14 12:57
66. 254 AMANDA GEORGE 39 F BIRMINGHAM AL 1:23:03 13:24 1:22:29 13:19
67. 776 VANESSA WILLIAMS 39 F CLANTON AL 1:24:05 13:34 1:23:01 13:24
68. 809 GIA BIVENS 39 F BIRMINGHAM AL 1:25:38 13:49 1:25:19 13:46
69. 631 LESLIE SCARBOROUGH 39 F BIRMINGHAM AL 1:25:48 13:51 1:24:53 13:42
70. 846 SARA NABORS 39 F CHELSEA AL 1:26:15 13:55 1:25:21 13:46
71. 123 RACHEL CAIN 36 F JASPER AL 1:28:18 14:15 1:27:21 14:06
72. 780 PAMELA WILSON 35 F BIRMINGHAM AL 1:29:58 14:31 1:28:44 14:19
73. 916 AMANDA HARDEN 38 F PELHAM AL 1:34:01 15:10 1:33:05 15:01
---------------------------------------------------------------------------
FEMALE AGE GROUP: 40 - 44
---------------------------------------------------------------------------

Place Bib NAME Age Sex CITY/STATE TeamName GunTime GunPace TagTime TagPace
1. 933 MARY BETH LEE 41 F HOOVER AL 45:50 7:24 45:43 7:23
2. 1027 RACHEL FRY 41 F BIRMINGHAM AL 47:18 7:38 46:36 7:31
3. 595 MISTY REYNOLDS 43 F VESTAVIA AL 50:00 8:04 49:54 8:03
4. 672 AMANDA SOONG 40 F VESTAVIA HILLS AL 50:03 8:05 49:02 7:55
5. 938 KATHRYNE MARTIN 42 F BIRMINGHAM AL 53:31 8:38 53:09 8:35
6. 756 AMI WEEMS 42 F BIRMINGHAM AL 54:55 8:52 53:43 8:40
7. 156 ELIZABETH COMPTON 42 F BIRMINGHAM AL 55:43 9:00 55:28 8:57
8. 193 ANNE DIGGS 41 F BIRMINGHAM AL 55:47 9:00 55:23 8:56
9. 552 JULIE PEARCE 44 F BIRMINGHAM AL RESOLUTE RUNNING COED 56:15 9:05 55:45 9:00
10. 56 AMY ARMSTRONG 41 F SPANISH FORT AL 56:16 9:05 55:49 9:01
11. 596 CATHERINE RHODES 41 F GOLDEN CO 56:16 9:05 55:49 9:01
12. 49 ERICA ANDERSON 41 F BIRMINGHAM AL 56:18 9:05 55:57 9:02
13. 971 ANA TUCKER 40 F TRUSSVILLE AL 56:58 9:12 56:27 9:07
14. 235 KRISTINA FREYMUTH 43 F FREISING 56:59 9:12 56:12 9:04
15. 144 APRIL CLOUD 44 F ODENVILLE AL 57:27 9:16 56:51 9:11
16. 761 ASHLEY WERCHANOWSKYJ 41 F HOOVER AL 57:35 9:18 56:37 9:08
17. 921 VALERIE HUGHES 42 F PRATTVILLE AL 57:48 9:20 57:11 9:14
18. 896 HEATHER DYKES 42 F TRUSSVILLE AL 58:02 9:22 57:14 9:14
19. 816 LINDSAY DEVENING 40 F BIRMINGHAM AL 58:04 9:22 57:48 9:20
20. 317 ANGIE HOGELAND 42 F ONEONTA AL 58:05 9:23 57:58 9:21
21. 984 JENNIFER CROKER 41 F HOOVER AL 58:27 9:26 57:21 9:15
22. 326 KIMBERLY HOOKS 41 F BIRMINGHAM AL 59:03 9:32 58:22 9:25
23. 611 BETH ROSE 42 F BIRMINGHAM AL RESOLUTE RUNNING COED 59:08 9:33 58:32 9:27
24. 75 TASHA BEATY 42 F STERRETT AL 59:19 9:34 58:32 9:27
25. 456 SAMANTHA MCCLUNEY 40 F CHELSEA AL 59:24 9:35 58:31 9:27
26. 228 DIXIE FORD 41 F BIRMINGHAM AL 59:25 9:35 58:36 9:27
27. 966 ELANA SWINEY 40 F BIRMINGHAM AL 59:42 9:38 59:17 9:34
28. 852 BROOKE POIRIER 44 F LEEDS AL 1:00:06 9:42 59:28 9:36
29. 795 KELLY WRIGHT 44 F TRUSSVILLE AL 1:00:09 9:43 59:37 9:37
30. 300 MARCIE HAYNIE 44 F BIRMINGHAM AL 1:00:19 9:44 1:00:03 9:41
31. 930 CHRISTY LEDUKE 43 F GUIN AL 1:00:42 9:48 59:29 9:36
32. 986 STACEY FRICKE 44 F GARDENDALE AL 1:01:01 9:51 1:00:36 9:47
33. 68 LAINE BARNES 44 F BIRMINGHAM AL 1:02:59 10:10 1:02:31 10:05
34. 915 JOY HANSON 40 F TRUSSVILLE AL 1:03:10 10:12 1:02:30 10:05
35. 503 GENA MUELLER 40 F BESSEMER AL 1:03:12 10:12 1:02:06 10:01
36. 360 NISA JONES 40 F BIRMINGHAM AL 1:06:06 10:40 1:05:43 10:36
37. 147 CAROL COLEY 43 F BIRMINGHAM AL 1:06:15 10:42 1:05:41 10:36
38. 114 AUDREY BROWN 41 F BIRMINGHAM AL RESOLUTE RUNNING COED 1:06:22 10:43 1:05:26 10:34
39. 1018 STEPHANIE LACHINA 44 F BIRMINGHAM AL 1:06:26 10:43 1:05:34 10:35
40. 721 BETH UHLMAN 43 F BIRMINGHAM AL 1:07:11 10:51 1:06:12 10:41
41. 588 TORI REBMAN 42 F CHELSEA AL 1:07:22 10:52 1:06:35 10:45
42. 996 TYNISIA ROWELL 44 F FAIRFIELD AL 1:07:46 10:56 1:06:57 10:48
43. 645 TARA SHEA 42 F BIRMINGHAM AL 1:07:58 10:58 1:07:31 10:54
44. 711 KRISTINE TOONE 40 F BIRMINGHAM AL 1:08:27 11:03 1:07:56 10:58
45. 848 LISA OAKMAN 43 F BIRMINGHAM AL 1:08:44 11:06 1:07:51 10:57
46. 127 TORI CANTAVESPRE 44 F STERRETT AL 1:08:53 11:07 1:07:40 10:55
47. 1024 BETH STOKES 40 F HELENA AL 1:10:00 11:18 1:09:05 11:09
48. 419 KRISTIN LONG 43 F HELENA AL 1:10:00 11:18 1:09:06 11:09
49. 643 MITZI SHAFFIELD 44 F VESTAVIA AL 1:11:03 11:28 1:09:58 11:17
50. 876 NANETTE BICKEL 43 F BIRMINGHAM AL 1:12:12 11:39 1:11:03 11:28
51. 958 CHRISTIE RIERSON 44 F BIRMINGHAM AL 1:12:12 11:39 1:11:04 11:28
52. 443 DIANE MAUGHAN 42 F PELHAM AL CABANISS JOHNSTON 1:12:30 11:42 1:11:56 11:37
53. 227 MISTY FONTENOT 40 F BIRMINGHAM AL RESOLUTE RUNNING COED 1:12:51 11:45 1:11:51 11:36
54. 656 SHANOSHA SMITH 41 F HOOVER AL 1:12:59 11:47 1:11:35 11:33
55. 1097 JENNIFER KELLEY 42 F HELENA AL 1:13:32 11:52 1:12:37 11:43
56. 664 TINA SMITH 44 F BIRMINGHAM AL 1:14:07 11:58 1:13:49 11:55
57. 975 SUSAN WALKER 40 F BIRMINGHAM AL 1:14:09 11:58 1:14:09 11:58
58. 368 JANET KAVINOKY 43 F HOMEWOOD AL 1:14:24 12:00 1:13:06 11:48
59. 216 CAROLINE ETHERIEDGE 40 F WARRIOR AL 1:17:35 12:31 1:16:23 12:20
60. 241 MELISSA GADDIS 40 F MADISON AL 1:17:59 12:35 1:16:54 12:25
61. 363 LUCY JORDAN 41 F HOOVER AL 1:19:45 12:52 1:19:19 12:48
62. 944 JULIE MILLER 44 F BIRMINGHAM AL 1:21:20 13:07 1:20:40 13:01
63. 510 AMY MURPHY 44 F PELHAM AL 1:21:29 13:09 1:20:17 12:57
64. 369 CHRISTY KEARLEY 42 F COLUMBIANA AL 1:24:40 13:40 1:24:28 13:38
65. 72 ANITRA BATIE 42 F JASPER AL 1:28:33 14:17 1:27:36 14:08
66. 1013 MEREDITH VINCENT 40 F CLANTON AL 1:30:40 14:38 1:29:37 14:28
67. 348 CECILY JACKSON 44 F MONTGOMERY AL 1:36:12 15:31 1:35:15 15:22
---------------------------------------------------------------------------
FEMALE AGE GROUP: 45 - 49
---------------------------------------------------------------------------

Place Bib NAME Age Sex CITY/STATE TeamName GunTime GunPace TagTime TagPace
1. 53 JENNIFER ANDRESS 48 F HOMEWOOD AL RESOLUTE RUNNING WOMEN 48:30 7:50 48:17 7:48
2. 924 JEN JACKSON 47 F HOMEWOOD AL 49:03 7:55 48:50 7:53
3. 395 JANE LAMB 45 F BIRMINGHAM AL 50:50 8:12 50:36 8:10
4. 601 HADEN RIDLEHOOVER 45 F BIRMINGHAM AL 50:50 8:12 50:37 8:10
5. 465 MARY LEE MCMAHON 49 F BIRMINGHAM AL 52:01 8:24 51:36 8:20
6. 167 TERESA CRAIN 49 F VESTAVIA HILLS AL RUNNINGLANE COED 52:32 8:29 52:23 8:27
7. 265 CHERYL GOODWIN 46 F BIRMINGHAM AL 52:57 8:33 52:52 8:32
8. 367 KIM KANE 49 F VESTAVIA AL 56:37 9:08 56:14 9:05
9. 402 KATHRYN LAVENDER 46 F BIRMINGHAM AL 57:20 9:15 57:06 9:13
10. 970 VERONICA TUCKER 46 F BIRMINGHAM AL 57:25 9:16 56:54 9:11
11. 867 JENNIFER WALKER-JOURNEY 49 F HOMEWOOD AL 57:33 9:17 57:03 9:13
12. 981 MARGARET TURNER 48 F VESTAVIA AL 57:39 9:18 57:22 9:16
13. 1020 TANYA NIX 49 F BIRMINGHAM AL 57:39 9:18 57:23 9:16
14. 102 GEORGIA BRENNAN 48 F BIRMINGHAM AL 57:41 9:19 57:01 9:12
15. 490 HILARY MORENO 46 F BIRMINGHAM AL 1:00:09 9:43 59:37 9:37
16. 754 NANCY WEBB 45 F GULF SHORES AL 1:00:15 9:44 59:24 9:35
17. 537 IRMA PALMER 49 F BIRMINGHAM AL RESOLUTE RUNNING COED 1:00:21 9:44 1:00:06 9:42
18. 160 LARONDA CORRIN 46 F BIRMINGHAM AL 1:00:40 9:47 1:00:28 9:46
19. 120 JENIFER BURKE 45 F BIRMINGHAM AL 1:01:11 9:53 1:00:43 9:48
20. 71 MEG BASHINSKY 48 F BIRMINGHAM AL 1:01:21 9:54 1:00:51 9:49
21. 210 JANE EMMERTH 45 F BIRMINGHAM AL 1:02:58 10:10 1:02:21 10:04
22. 991 DODIE DRISCOLL 45 F ALABASTER AL 1:03:15 10:13 1:02:02 10:01
23. 726 KELLY VANDIVER 47 F BIRMINGHAM AL 1:03:19 10:13 1:02:14 10:03
24. 859 CHRISTY SHARP 46 F BIRMINGHAM AL 1:04:01 10:20 1:03:09 10:11
25. 652 CECELIA SIMS 49 F ALABASTER AL 1:04:10 10:21 1:03:26 10:14
26. 454 VICKIE MCCARTHY 49 F CHELSEA AL 1:04:34 10:25 1:03:47 10:18
27. 1028 LEIGH BELCHER 45 F VESTAVIA HILLS AL 1:04:57 10:29 1:04:19 10:23
28. 956 JENNIFER POIRIER 49 F HOMEWOOD AL 1:06:08 10:40 1:05:42 10:36
29. 113 STEPHANIE BROWN 45 F TRUSSVILLE AL 1:06:24 10:43 1:05:55 10:38
30. 202 TIFFANY DUNLAP 46 F BIRMINGHAM AL 1:07:11 10:51 1:06:11 10:41
31. 594 DEANNA RENN 46 F PRATTVILLE AL 1:07:36 10:55 1:06:39 10:45
32. 874 JENNIFER BEALL 47 F BIRMINGHAM AL 1:07:51 10:57 1:07:00 10:49
33. 651 TRICIA SIMPSON 46 F BIRMINGHAM AL 1:08:44 11:06 1:07:52 10:57
34. 286 SABRINA HANSEN-TURNBULL 48 F BIRMINGHAM AL 1:12:09 11:39 1:11:43 11:34
35. 287 BROOKIE HARBISON 45 F ALABASTER AL 1:13:29 11:52 1:13:04 11:48
36. 295 WENDY HASSINGER 47 F BIRMINGHAM AL 1:13:31 11:52 1:12:31 11:42
37. 562 TAN PHILLIPS 49 F BIRMINGHAM AL 1:17:27 12:30 1:16:36 12:22
38. 693 SHELLIE TALLEY 45 F LEEDS AL 1:18:10 12:37 1:17:51 12:34
39. 678 MEG STANA 45 F BIRMINGHAM AL 1:18:51 12:43 1:17:48 12:33
40. 682 JENNIFER STIMSON 47 F BIRMINGHAM AL 1:19:13 12:47 1:18:03 12:36
41. 441 LIZA MATHEWS 45 F ODENVILLE AL 1:19:31 12:50 1:18:43 12:42
42. 686 MELONIE STURM 47 F PELHAM AL 1:19:38 12:51 1:19:10 12:47
43. 189 MO DESAI 47 F BIRMINGHAM AL 1:21:16 13:07 1:20:31 13:00
44. 676 BRIAN STANA 46 F BIRMINGHAM AL 1:23:37 13:30 1:22:36 13:20
45. 998 CAROL MILLS 46 F HOMEWOOD AL 1:28:46 14:19 1:27:32 14:07
46. 805 KATHRYN APPLETON 49 F BIRMINGHAM AL 1:28:46 14:19 1:27:32 14:07
47. 589 AMIEE REEVES 48 F BIRMINGHAM AL 1:29:22 14:25 1:28:26 14:16
48. 801 SALLIE YOUNGBLOOD 46 F BIRMINGHAM AL 1:29:22 14:25 1:28:25 14:16
49. 357 CHRISTY JOHNSON 46 F BIRMINGHAM AL 1:30:20 14:35 1:30:03 14:32
50. 117 LAURA BUCKANAN 45 F BIRMINGHAM AL 1:32:40 14:57 1:31:39 14:47
51. 381 JULIA KIRKSEY 45 F SYLACAUGA AL 1:36:17 15:32 1:35:09 15:21
52. 603 KATHY ROBBINS 45 F MAYLENE AL 1:36:22 15:33 1:35:12 15:22
53. 868 MARIETTA WICKS 47 F BESSEMER AL 1:39:20 16:02 1:38:15 15:51
---------------------------------------------------------------------------
FEMALE AGE GROUP: 50 - 54
---------------------------------------------------------------------------

Place Bib NAME Age Sex CITY/STATE TeamName GunTime GunPace TagTime TagPace
1. 366 STACY KADLE 54 F HOMEWOOD AL 52:20 8:27 52:03 8:24
2. 478 JULIE MISSILDINE 53 F DECATUR AL 54:44 8:50 54:23 8:47
3. 513 LISA NAGY 50 F BIRMINGHAM AL 54:47 8:51 54:31 8:48
4. 574 JEAN POWERS 53 F MOBILE AL 55:08 8:54 54:12 8:45
5. 548 MELANIE PAUL 51 F LOUISVILLE MS 56:08 9:04 55:38 8:59
6. 350 KAKI JENKINS 53 F BIRMINGHAM AL 57:16 9:15 56:39 9:09
7. 382 ANN KLASNER 50 F BIRMINGHAM AL RESOLUTE RUNNING COED 57:22 9:16 56:45 9:10
8. 617 BARBARA ROURKE 52 F BIRMINGHAM AL 57:28 9:17 56:51 9:11
9. 70 JENNY BARRY 50 F VESTAVIA AL 57:32 9:17 57:21 9:15
10. 690 SUSAN SWAGLER 52 F BIRMINGHAM AL 1:01:36 9:57 1:01:11 9:53
11. 243 TAMMY GAINES 54 F BIRMINGHAM AL 1:01:59 10:00 1:01:31 9:56
12. 110 MARLENE BROWN 51 F TRUSSVILLE AL 1:04:02 10:20 1:03:38 10:16
13. 515 KATHERINE NEIGEL 52 F ATHABASCA CA 1:04:06 10:21 1:03:44 10:17
14. 1031 CLOTY EL-ZEIN 52 F BIRMINGHAM AL 1:04:11 10:21 1:03:52 10:19
15. 525 CLAIRE NORTON 50 F HOMEWOOD AL 1:04:35 10:25 1:04:22 10:23
16. 703 KAREN THRELKELD 51 F BIRMINGHAM AL 1:05:26 10:34 1:05:03 10:30
17. 516 SUSAN NELMS 53 F HELENA AL 1:05:27 10:34 1:04:29 10:24
18. 541 KERI PARKER 51 F HOOVER AL 1:05:27 10:34 1:04:28 10:24
19. 954 MELINDA PARKS 51 F TRUSSVILLE AL RESOLUTE RUNNING COED 1:06:19 10:42 1:05:30 10:34
20. 163 SHERYL CORY 54 F CLEARWATER FL 1:07:42 10:56 1:07:10 10:50
21. 293 LISA HARVEY 53 F SPRINGVILLE AL 1:07:47 10:56 1:07:20 10:52
22. 449 ERIN MCATEE 50 F BIRMINGHAM AL 1:10:05 11:19 1:08:57 11:08
23. 486 ROSEMARY MOORE 51 F BIRMINGHAM AL 1:12:13 11:39 1:11:04 11:28
24. 980 MARY WORTHINGTON 52 F BIRMINGHAM AL 1:12:25 11:41 1:11:33 11:33
25. 955 ADELE PITTS 51 F HELENA AL 1:14:16 11:59 1:13:43 11:54
26. 85 MARJORIE BISHOP 53 F HUNTSVILLE AL 1:15:14 12:09 1:14:38 12:03
27. 802 CARY ZEANAH 53 F VESTAVIA AL 1:15:40 12:13 1:15:14 12:08
28. 390 BETSY KRUEGER 54 F BIRMINGHAM AL 1:20:14 12:57 1:19:56 12:54
29. 94 JEAN MARIE BOTTSFORD 53 F BIRMINGHAM AL 1:20:35 13:00 1:20:00 12:55
30. 736 CYNTHIA WALDROP 54 F BIRMINGHAM AL 1:23:04 13:24 1:22:20 13:17
31. 798 KIM YARBORO 50 F BIRMINGHAM AL 1:26:08 13:54 1:25:40 13:49
32. 746 MARY ANN WATKINS 51 F GADSDEN AL 1:32:40 14:57 1:31:38 14:47
33. 573 RENEE POWELL 54 F CLANTON AL 1:36:21 15:33 1:35:13 15:22
34. 734 KAREN WADLINGTON 51 F BESSEMER AL 1:37:01 15:39 1:35:55 15:29
35. 137 MISSY CHILDERS 53 F BIRMINGHAM AL 1:39:25 16:02 1:38:40 15:55
36. 928 MARY GRACE KAUFMANN 54 F BIRMINGHAM AL 1:44:10 16:48 1:43:52 16:46
---------------------------------------------------------------------------
FEMALE AGE GROUP: 55 - 59
---------------------------------------------------------------------------

Place Bib NAME Age Sex CITY/STATE TeamName GunTime GunPace TagTime TagPace
1. 319 TRICIA HOLBROOK 55 F BIRMINGHAM AL 46:43 7:33 46:36 7:31
2. 121 THERESA BURST 58 F BIRMINGHAM AL 48:25 7:49 48:16 7:48
3. 700 JAMIE THOMAS 55 F BIRMINGHAM AL 50:47 8:12 50:35 8:10
4. 238 LISA FULLER 57 F BIRMINGHAM AL 53:36 8:39 53:26 8:38
5. 964 DEANNA STEELE 56 F TUSCALOOSA AL 55:55 9:02 55:43 9:00
6. 692 GINGER TALLENT 56 F KIMBERLY AL 58:00 9:22 57:38 9:18
7. 217 DEBBIE EVANS 59 F SPRINGVILLE AL 58:36 9:27 57:57 9:21
8. 568 JILL PITTS 55 F BIRMINGHAM AL 1:03:41 10:17 1:02:35 10:06
9. 1030 LINDA REIMANN 56 F BIRMINGHAM AL 1:04:11 10:22 1:03:52 10:18
10. 783 LAURIE WILSON 56 F HUNTSVILLE AL 1:05:34 10:35 1:04:44 10:27
11. 81 MELISSA BIBB 59 F PELHAM AL 1:06:35 10:45 1:05:39 10:36
12. 927 IRA JONES 59 F TRUSSVILLE AL 1:07:18 10:52 1:06:29 10:44
13. 1081 SANDRA GILLEY 55 F BIRMINGHAM AL 1:07:28 10:53 1:06:25 10:43
14. 442 CHERYL MATTRELLA 56 F BIRMINGHAM AL 1:07:47 10:56 1:07:20 10:52
15. 291 VICKIE HARRIS 58 F BIRMINGHAM AL 1:08:06 10:59 1:07:21 10:52
16. 530 PATSY OLIVER 57 F VESTAVIA AL 1:08:53 11:07 1:07:37 10:55
17. 125 VALERIE CAMPBELL 57 F BIRMINGHAM AL 1:09:50 11:16 1:09:25 11:12
18. 704 ALICE THROWER 59 F OXFORD AL 1:11:51 11:36 1:10:55 11:27
19. 972 JUDY VATELLA 55 F BIRMINGHAM AL 1:12:12 11:39 1:11:03 11:28
20. 960 CINDI ROUTMAN 59 F BIRMINGHAM AL 1:13:55 11:56 1:13:05 11:48
21. 343 LIZ HYDE 55 F BIRMINGHAM AL 1:15:46 12:14 1:15:04 12:07
22. 1062 JENNIE CRAFT 55 F BIRMINGHAM AL 1:20:31 13:00 1:19:32 12:50
23. 610 LYNN ROPER 59 F BIRMINGHAM AL 1:25:48 13:51 1:24:54 13:42
24. 689 SUE ELLEN SUMMERS 57 F MOUNTAIN BROOK AL 1:29:11 14:23 1:28:25 14:16
25. 270 NOEL GRAHAM 59 F BIRMINGHAM AL 1:33:03 15:01 1:31:53 14:50
26. 1059 LISA SIMS 55 F HELENA AL 1:33:10 15:02 1:32:06 14:52
---------------------------------------------------------------------------
FEMALE AGE GROUP: 60 - 64
---------------------------------------------------------------------------

Place Bib NAME Age Sex CITY/STATE TeamName GunTime GunPace TagTime TagPace
1. 201 CINDY DUKE 64 F BIRMINGHAM AL 59:46 9:39 58:57 9:31
2. 322 NANCY HOLLAWAY 61 F BIRMINGHAM AL 1:04:30 10:25 1:04:00 10:20
3. 347 MELANIE JACKSON 62 F BIRMINGHAM AL 1:05:36 10:35 1:04:39 10:26
4. 906 JANIE FORDHAM 63 F BIRMINGHAM AL 1:06:14 10:41 1:05:14 10:32
5. 778 JEAN WILLIAMS 64 F ALABASTER AL 1:06:19 10:42 1:06:07 10:40
6. 410 GAIL LEE 64 F BIRMINGHAM AL 1:08:39 11:05 1:07:34 10:54
7. 719 IRENE TYNER 62 F MONTGOMERY AL 1:08:59 11:08 1:08:10 11:00
8. 575 PATTI PRESTON 63 F MONTGOMERY AL 1:12:01 11:37 1:11:10 11:29
9. 544 MICHELE PARR 60 F BIRMINGHAM AL 1:20:55 13:04 1:19:55 12:54
10. 500 PAMELA MOSER 60 F BIRMINGHAM AL 1:25:48 13:51 1:24:54 13:42
11. 157 JANE COOPER 63 F BIRMINGHAM AL 1:26:28 13:57 1:25:16 13:46
12. 361 SANDRA JONES 63 F BIRMINGHAM AL 1:33:03 15:01 1:31:53 14:50
13. 397 LINDA LANCASTER 64 F BIRMINGHAM AL 1:56:46 18:50 1:55:29 18:38
---------------------------------------------------------------------------
FEMALE AGE GROUP: 65 - 69
---------------------------------------------------------------------------

Place Bib NAME Age Sex CITY/STATE TeamName GunTime GunPace TagTime TagPace
1. 757 JEANNE WELSH 65 F STERRETT AL 1:05:39 10:36 1:04:43 10:27
2. 174 SUE CROWE 66 F BIRMINGHAM AL 1:06:00 10:39 1:05:37 10:35
3. 405 LINDA LAZAR 68 F BIRMINGHAM AL 1:11:22 11:31 1:10:24 11:22
4. 136 TERESA CHANDLER 66 F BIRMINGHAM AL 1:14:00 11:56 1:13:00 11:47
5. 338 DONNA HUGGINS 65 F BIRMINGHAM AL 1:25:28 13:48 1:24:23 13:37
6. 850 FRANCES PATTON 65 F BIRMINGHAM AL 1:25:39 13:49 1:25:20 13:46
7. 130 PAMELA CARTER 66 F BIRMINGHAM AL 1:28:09 14:13 1:27:34 14:08
---------------------------------------------------------------------------
FEMALE AGE GROUP: 70 - 98 (** NONE **)
---------------------------------------------------------------------------
---------------------------------------------------------------------------
FEMALE no age given AGE GROUP: 99 - 99 (** NONE **)
---------------------------------------------------------------------------